Time;durP1;ratioP1;P1;durP2;ratioP2;P2;SDS_P1;SDS_P2;PMS_P1;PMS_P2;Temp;Humidity;BMP_temperature;BMP_pressure;BME280_temperature;BME280_humidity;BME280_pressure;Samples;Min_cycle;Max_cycle;Signal;HPM_P1;HPM_P2
2022/08/20 00:00:16;;;;;;;13.30;10.37;;;;;;;;;;5011736;28;20466;-71
2022/08/20 00:02:46;;;;;;;12.70;11.10;;;;;;;;;;5009208;28;20447;-71
2022/08/20 00:05:13;;;;;;;12.83;11.50;;;;;;;;;;5009953;28;20495;-70
2022/08/20 00:07:40;;;;;;;12.27;10.97;;;;;;;;;;5011946;28;20730;-70
2022/08/20 00:10:10;;;;;;;13.80;12.07;;;;;;;;;;4994573;28;20452;-70
2022/08/20 00:12:37;;;;;;;14.93;12.00;;;;;;;;;;4992507;28;20456;-70
2022/08/20 00:15:05;;;;;;;13.33;11.90;;;;;;;;;;4991917;28;20458;-71
2022/08/20 00:17:34;;;;;;;13.27;11.83;;;;;;;;;;4991021;28;20483;-70
2022/08/20 00:20:02;;;;;;;15.67;11.80;;;;;;;;;;4990030;28;20470;-70
2022/08/20 00:22:29;;;;;;;12.00;10.77;;;;;;;;;;4990228;28;20573;-70
2022/08/20 00:24:57;;;;;;;12.77;11.47;;;;;;;;;;4990679;28;20519;-70
2022/08/20 00:27:27;;;;;;;14.33;12.47;;;;;;;;;;4990635;28;20456;-70
2022/08/20 00:29:54;;;;;;;12.80;11.50;;;;;;;;;;4990755;28;20474;-71
2022/08/20 00:32:21;;;;;;;14.93;11.37;;;;;;;;;;4990589;28;20878;-71
2022/08/20 00:34:48;;;;;;;13.33;10.70;;;;;;;;;;4991078;28;20736;-71
2022/08/20 00:37:16;;;;;;;14.30;12.27;;;;;;;;;;4990828;28;20900;-72
2022/08/20 00:39:43;;;;;;;23.90;14.13;;;;;;;;;;4989624;28;20509;-72
2022/08/20 00:42:11;;;;;;;25.60;16.90;;;;;;;;;;4990601;28;20468;-72
2022/08/20 00:44:44;;;;;;;35.30;18.83;;;;;;;;;;4992612;28;20592;-72
2022/08/20 00:47:11;;;;;;;20.13;15.23;;;;;;;;;;4992100;28;20452;-72
2022/08/20 00:49:38;;;;;;;19.60;14.73;;;;;;;;;;4992197;28;20523;-71
2022/08/20 00:52:07;;;;;;;23.93;16.73;;;;;;;;;;4989847;28;20472;-71
2022/08/20 00:54:38;;;;;;;20.77;14.43;;;;;;;;;;4989576;28;20475;-71
2022/08/20 00:57:09;;;;;;;18.40;13.33;;;;;;;;;;4990738;28;20527;-71
2022/08/20 00:59:38;;;;;;;14.63;12.80;;;;;;;;;;4989455;28;20821;-71
2022/08/20 01:02:07;;;;;;;18.30;14.50;;;;;;;;;;4990426;28;20766;-71
2022/08/20 01:04:35;;;;;;;15.13;13.30;;;;;;;;;;4989944;28;20495;-71
2022/08/20 01:07:05;;;;;;;15.33;12.90;;;;;;;;;;4990134;28;20870;-71
2022/08/20 01:09:32;;;;;;;14.10;12.20;;;;;;;;;;4989656;28;20566;-71
2022/08/20 01:12:00;;;;;;;13.33;11.33;;;;;;;;;;4990504;28;20458;-71
2022/08/20 01:14:30;;;;;;;18.90;15.00;;;;;;;;;;4990005;28;20468;-71
2022/08/20 01:16:59;;;;;;;15.00;13.10;;;;;;;;;;4990577;28;20753;-71
2022/08/20 01:19:29;;;;;;;18.90;14.50;;;;;;;;;;4990120;28;20800;-71
2022/08/20 01:21:57;;;;;;;16.00;13.77;;;;;;;;;;4989704;28;20455;-71
2022/08/20 01:24:27;;;;;;;18.63;15.43;;;;;;;;;;4989784;28;20463;-71
2022/08/20 01:26:55;;;;;;;18.83;16.73;;;;;;;;;;4989676;28;20806;-71
2022/08/20 01:29:24;;;;;;;21.17;15.77;;;;;;;;;;4990460;28;20591;-71
2022/08/20 01:31:51;;;;;;;16.77;13.77;;;;;;;;;;4990297;28;20474;-71
2022/08/20 01:34:20;;;;;;;13.83;12.43;;;;;;;;;;4990755;28;20597;-71
2022/08/20 01:36:49;;;;;;;14.13;11.37;;;;;;;;;;4990440;28;20784;-71
2022/08/20 01:39:18;;;;;;;16.97;11.80;;;;;;;;;;4989647;28;20464;-71
2022/08/20 01:41:51;;;;;;;15.00;12.07;;;;;;;;;;4989262;28;20452;-71
2022/08/20 01:44:20;;;;;;;13.43;11.90;;;;;;;;;;4989812;28;20479;-70
2022/08/20 01:46:49;;;;;;;14.90;11.83;;;;;;;;;;4990589;28;20464;-71
2022/08/20 01:49:17;;;;;;;11.93;10.13;;;;;;;;;;4990032;28;20459;-71
2022/08/20 01:51:45;;;;;;;13.20;11.80;;;;;;;;;;5005448;28;20850;-71
2022/08/20 01:54:12;;;;;;;14.67;11.40;;;;;;;;;;5011875;28;20467;-71
2022/08/20 01:56:59;;;;;;;14.67;12.63;;;;;;;;;;5011701;28;20471;-71
2022/08/20 01:59:33;;;;;;;14.87;12.10;;;;;;;;;;5009317;28;20492;-71
2022/08/20 02:02:01;;;;;;;17.33;13.60;;;;;;;;;;5009068;28;20459;-71
2022/08/20 02:04:30;;;;;;;17.13;14.33;;;;;;;;;;5001501;28;20747;-71
2022/08/20 02:06:58;;;;;;;15.50;13.63;;;;;;;;;;4990271;28;20850;-71
2022/08/20 02:09:26;;;;;;;16.77;14.97;;;;;;;;;;4990803;28;20713;-70
2022/08/20 02:11:53;;;;;;;17.83;15.20;;;;;;;;;;4991438;28;20473;-70
2022/08/20 02:14:20;;;;;;;17.17;14.53;;;;;;;;;;4989986;28;20472;-70
2022/08/20 02:16:53;;;;;;;17.67;14.37;;;;;;;;;;4991402;28;20440;-71
2022/08/20 02:19:21;;;;;;;15.20;13.60;;;;;;;;;;4989120;28;20456;-71
2022/08/20 02:21:51;;;;;;;19.80;14.53;;;;;;;;;;4989401;28;20456;-70
2022/08/20 02:24:19;;;;;;;16.47;13.57;;;;;;;;;;4990514;28;20902;-71
2022/08/20 02:26:47;;;;;;;15.63;14.00;;;;;;;;;;4989145;28;20460;-70
2022/08/20 02:29:14;;;;;;;16.20;14.50;;;;;;;;;;4989407;28;20455;-71
2022/08/20 02:31:42;;;;;;;16.60;13.40;;;;;;;;;;4990152;28;20464;-70
2022/08/20 02:34:11;;;;;;;15.87;12.67;;;;;;;;;;4990785;28;20647;-71
2022/08/20 02:36:39;;;;;;;14.63;12.60;;;;;;;;;;4990026;28;20468;-71
2022/08/20 02:39:07;;;;;;;14.83;13.17;;;;;;;;;;4989732;28;20456;-71
2022/08/20 02:41:38;;;;;;;14.73;10.70;;;;;;;;;;4990890;28;20459;-71
2022/08/20 02:44:06;;;;;;;14.90;11.10;;;;;;;;;;4989532;28;20521;-71
2022/08/20 02:46:33;;;;;;;13.17;11.77;;;;;;;;;;4989520;28;20701;-71
2022/08/20 02:49:00;;;;;;;15.63;13.97;;;;;;;;;;4990286;28;20448;-71
2022/08/20 02:51:28;;;;;;;14.57;11.33;;;;;;;;;;4989777;28;20461;-71
2022/08/20 02:53:56;;;;;;;12.57;11.27;;;;;;;;;;4990071;28;20551;-71
2022/08/20 02:56:23;;;;;;;11.37;10.17;;;;;;;;;;4989837;28;20601;-71
2022/08/20 02:58:50;;;;;;;13.93;11.20;;;;;;;;;;4989805;28;20453;-71
2022/08/20 03:01:18;;;;;;;11.70;10.33;;;;;;;;;;4989515;28;20461;-71
2022/08/20 03:03:45;;;;;;;12.27;10.43;;;;;;;;;;4991100;28;20475;-71
2022/08/20 03:06:13;;;;;;;14.00;12.17;;;;;;;;;;4989553;28;20591;-71
2022/08/20 03:08:42;;;;;;;12.33;11.03;;;;;;;;;;4988837;28;20460;-71
2022/08/20 03:11:09;;;;;;;13.27;11.87;;;;;;;;;;4990297;28;20480;-72
2022/08/20 03:13:37;;;;;;;17.23;12.40;;;;;;;;;;4990965;28;20584;-71
2022/08/20 03:16:06;;;;;;;14.27;11.77;;;;;;;;;;4989296;28;20539;-72
2022/08/20 03:18:38;;;;;;;18.97;14.07;;;;;;;;;;4989112;28;20464;-72
2022/08/20 03:21:07;;;;;;;14.97;12.53;;;;;;;;;;4989514;28;20566;-72
2022/08/20 03:23:35;;;;;;;13.93;11.67;;;;;;;;;;4990222;28;20460;-72
2022/08/20 03:26:04;;;;;;;15.13;12.40;;;;;;;;;;4989804;28;20855;-71
2022/08/20 03:28:31;;;;;;;13.97;11.27;;;;;;;;;;4988356;28;20464;-72
2022/08/20 03:30:58;;;;;;;12.47;11.03;;;;;;;;;;4989341;28;20463;-72
2022/08/20 03:33:25;;;;;;;15.23;12.00;;;;;;;;;;4989505;28;20500;-71
2022/08/20 03:35:55;;;;;;;10.43;9.33;;;;;;;;;;4990315;28;21011;-72
2022/08/20 03:38:26;;;;;;;11.40;10.27;;;;;;;;;;4988759;28;20471;-71
2022/08/20 03:40:56;;;;;;;13.47;10.50;;;;;;;;;;4988843;28;20486;-71
2022/08/20 03:43:24;;;;;;;12.00;10.37;;;;;;;;;;4988408;28;20749;-70
2022/08/20 03:45:52;;;;;;;10.43;8.83;;;;;;;;;;4989257;28;20567;-70
2022/08/20 03:48:20;;;;;;;10.57;8.60;;;;;;;;;;4990753;28;20551;-71
2022/08/20 03:50:49;;;;;;;9.17;8.27;;;;;;;;;;4989368;28;20523;-75
2022/08/20 03:53:16;;;;;;;10.47;9.10;;;;;;;;;;4989042;28;20889;-70
2022/08/20 03:55:46;;;;;;;9.70;8.70;;;;;;;;;;4990141;28;20472;-71
2022/08/20 03:58:16;;;;;;;9.63;8.20;;;;;;;;;;4988781;28;20543;-71
2022/08/20 04:00:46;;;;;;;9.10;7.90;;;;;;;;;;4988645;28;21081;-70
2022/08/20 04:03:13;;;;;;;9.30;8.40;;;;;;;;;;4988201;28;20592;-70
2022/08/20 04:05:41;;;;;;;8.40;7.50;;;;;;;;;;4988754;28;20560;-71
2022/08/20 04:08:10;;;;;;;10.40;8.50;;;;;;;;;;4988711;28;20504;-70
2022/08/20 04:10:37;;;;;;;9.03;8.10;;;;;;;;;;4989799;28;20459;-70
2022/08/20 04:13:06;;;;;;;11.20;7.93;;;;;;;;;;4990137;28;20516;-70
2022/08/20 04:15:38;;;;;;;9.30;7.67;;;;;;;;;;4989018;28;20467;-71
2022/08/20 04:18:09;;;;;;;8.13;7.30;;;;;;;;;;4989145;28;20516;-71
2022/08/20 04:20:38;;;;;;;10.47;8.30;;;;;;;;;;4989254;28;20452;-71
2022/08/20 04:23:06;;;;;;;11.37;7.80;;;;;;;;;;4989164;28;20457;-70
2022/08/20 04:25:34;;;;;;;8.80;7.60;;;;;;;;;;4988329;28;20484;-71
2022/08/20 04:28:02;;;;;;;9.10;7.40;;;;;;;;;;4989070;28;20870;-70
2022/08/20 04:30:31;;;;;;;8.73;6.83;;;;;;;;;;4991393;28;20464;-71
2022/08/20 04:32:58;;;;;;;7.97;7.13;;;;;;;;;;4991457;28;20482;-70
2022/08/20 04:35:27;;;;;;;7.90;7.10;;;;;;;;;;4991910;28;20756;-70
2022/08/20 04:37:59;;;;;;;7.37;6.67;;;;;;;;;;4990568;28;20463;-70
2022/08/20 04:43:12;;;;;;;7.10;6.40;;;;;;;;;;4990471;28;21043;-71
2022/08/20 04:45:39;;;;;;;7.50;6.50;;;;;;;;;;4992160;28;20494;-71
2022/08/20 04:48:07;;;;;;;10.83;6.87;;;;;;;;;;5007538;28;20455;-70
2022/08/20 04:50:36;;;;;;;9.20;7.70;;;;;;;;;;5011099;28;20458;-71
2022/08/20 04:53:03;;;;;;;8.60;6.97;;;;;;;;;;5010493;28;20467;-71
2022/08/20 04:55:30;;;;;;;10.70;6.83;;;;;;;;;;5011586;28;20452;-70
2022/08/20 04:58:03;;;;;;;7.63;6.90;;;;;;;;;;5010023;28;20542;-71
2022/08/20 05:00:31;;;;;;;8.13;7.30;;;;;;;;;;5010308;28;20549;-70
2022/08/20 05:02:58;;;;;;;8.67;7.77;;;;;;;;;;5010049;28;20777;-71
2022/08/20 05:05:26;;;;;;;10.00;8.00;;;;;;;;;;5010981;28;20495;-71
2022/08/20 05:07:54;;;;;;;8.63;7.73;;;;;;;;;;5010668;28;20865;-71
2022/08/20 05:10:22;;;;;;;10.30;7.43;;;;;;;;;;5010135;28;20466;-71
2022/08/20 05:12:49;;;;;;;8.33;6.90;;;;;;;;;;5010640;28;20463;-72
2022/08/20 05:15:19;;;;;;;11.13;7.40;;;;;;;;;;5009937;28;20790;-71
2022/08/20 05:17:50;;;;;;;10.93;8.60;;;;;;;;;;5010326;28;20618;-72
2022/08/20 05:20:17;;;;;;;8.47;7.50;;;;;;;;;;5009761;28;20439;-72
2022/08/20 05:22:45;;;;;;;13.80;8.17;;;;;;;;;;5010204;28;20466;-71
2022/08/20 05:25:13;;;;;;;10.80;7.50;;;;;;;;;;5010101;28;20516;-71
2022/08/20 05:27:45;;;;;;;8.80;7.90;;;;;;;;;;5011588;28;20482;-72
2022/08/20 05:30:12;;;;;;;9.20;8.20;;;;;;;;;;5010063;28;20482;-71
2022/08/20 05:32:44;;;;;;;12.93;9.10;;;;;;;;;;5009988;28;20544;-71
2022/08/20 05:35:11;;;;;;;9.73;7.00;;;;;;;;;;5011185;28;20562;-71
2022/08/20 05:37:39;;;;;;;8.70;7.60;;;;;;;;;;5011120;28;20464;-71
2022/08/20 05:40:09;;;;;;;8.63;7.47;;;;;;;;;;5011288;28;20473;-71
2022/08/20 05:42:37;;;;;;;9.40;7.93;;;;;;;;;;5010588;28;20868;-71
2022/08/20 05:45:05;;;;;;;10.43;8.60;;;;;;;;;;5010725;28;20479;-72
2022/08/20 05:47:39;;;;;;;10.20;8.07;;;;;;;;;;5012376;28;20532;-70
2022/08/20 05:50:08;;;;;;;10.20;8.00;;;;;;;;;;5011527;28;20456;-70
2022/08/20 05:52:35;;;;;;;11.40;8.40;;;;;;;;;;5012088;28;20908;-72
2022/08/20 05:55:02;;;;;;;10.37;8.33;;;;;;;;;;5009117;28;20794;-71
2022/08/20 05:57:29;;;;;;;10.60;7.90;;;;;;;;;;5011361;28;20447;-72
2022/08/20 05:59:59;;;;;;;10.40;8.30;;;;;;;;;;5011210;28;20771;-72
2022/08/20 06:05:12;;;;;;;9.53;8.17;;;;;;;;;;5009134;28;20490;-72
2022/08/20 06:07:49;;;;;;;9.93;7.53;;;;;;;;;;5009291;28;20467;-71
2022/08/20 06:10:17;;;;;;;9.73;7.50;;;;;;;;;;5009530;28;20462;-71
2022/08/20 06:12:44;;;;;;;11.23;8.20;;;;;;;;;;5010892;28;20486;-70
2022/08/20 06:15:16;;;;;;;8.77;7.80;;;;;;;;;;5008223;28;20471;-70
2022/08/20 06:17:43;;;;;;;10.27;7.70;;;;;;;;;;5002937;28;20526;-70
2022/08/20 06:20:11;;;;;;;9.87;8.63;;;;;;;;;;5009423;28;20455;-70
2022/08/20 06:22:38;;;;;;;10.43;7.43;;;;;;;;;;5009666;28;20478;-71
2022/08/20 06:25:06;;;;;;;8.93;7.07;;;;;;;;;;5010400;28;20495;-71
2022/08/20 06:27:35;;;;;;;11.23;7.27;;;;;;;;;;5010015;28;20555;-72
2022/08/20 06:30:03;;;;;;;7.77;6.13;;;;;;;;;;5004246;28;20912;-71
2022/08/20 06:32:32;;;;;;;9.53;7.77;;;;;;;;;;5008699;28;20482;-72
2022/08/20 06:35:00;;;;;;;13.00;7.37;;;;;;;;;;5009879;28;20463;-72
2022/08/20 06:37:29;;;;;;;9.10;6.07;;;;;;;;;;5007908;28;20474;-71
2022/08/20 06:40:01;;;;;;;9.17;6.27;;;;;;;;;;5010323;28;20473;-72
2022/08/20 06:42:31;;;;;;;6.90;5.87;;;;;;;;;;5009851;28;20464;-72
2022/08/20 06:45:04;;;;;;;7.60;6.80;;;;;;;;;;5009748;28;20459;-72
2022/08/20 06:47:32;;;;;;;8.97;6.00;;;;;;;;;;5008252;28;20989;-72
2022/08/20 06:50:00;;;;;;;10.47;5.87;;;;;;;;;;5009819;28;20483;-71
2022/08/20 06:52:27;;;;;;;6.73;5.77;;;;;;;;;;5008342;28;20474;-72
2022/08/20 06:54:54;;;;;;;7.13;5.93;;;;;;;;;;5009967;28;20481;-70
2022/08/20 06:57:21;;;;;;;7.40;6.30;;;;;;;;;;5010565;28;20501;-72
2022/08/20 06:59:49;;;;;;;7.90;6.23;;;;;;;;;;5003318;28;20461;-71
2022/08/20 07:02:16;;;;;;;6.90;5.67;;;;;;;;;;4994455;28;20476;-72
2022/08/20 07:04:44;;;;;;;10.63;6.07;;;;;;;;;;4990738;28;20543;-70
2022/08/20 07:07:15;;;;;;;7.40;5.93;;;;;;;;;;4990685;28;20870;-71
2022/08/20 07:09:47;;;;;;;6.37;5.30;;;;;;;;;;4990659;28;20468;-71
2022/08/20 07:12:18;;;;;;;9.90;5.70;;;;;;;;;;4990367;28;20459;-72
2022/08/20 07:14:50;;;;;;;7.13;4.97;;;;;;;;;;4997083;28;20459;-72
2022/08/20 07:17:19;;;;;;;6.97;5.47;;;;;;;;;;5003574;28;20468;-72
2022/08/20 07:19:47;;;;;;;6.93;5.50;;;;;;;;;;4991052;28;20848;-71
2022/08/20 07:22:14;;;;;;;8.30;5.70;;;;;;;;;;5001722;28;20491;-71
2022/08/20 07:24:41;;;;;;;6.70;5.27;;;;;;;;;;4994530;28;20491;-71
2022/08/20 07:27:20;;;;;;;8.43;5.40;;;;;;;;;;4989694;28;20913;-71
2022/08/20 07:32:35;;;;;;;6.10;5.50;;;;;;;;;;4993396;28;20470;-69
2022/08/20 07:35:04;;;;;;;6.27;4.87;;;;;;;;;;5008310;28;20467;-71
2022/08/20 07:37:32;;;;;;;11.77;5.53;;;;;;;;;;5009315;28;20491;-72
2022/08/20 07:40:09;;;;;;;7.80;5.30;;;;;;;;;;5015111;28;20459;-71
2022/08/20 07:42:38;;;;;;;6.70;5.30;;;;;;;;;;5002890;28;20722;-71
2022/08/20 07:45:10;;;;;;;8.57;6.20;;;;;;;;;;5003737;28;20466;-71
2022/08/20 07:47:39;;;;;;;8.10;5.00;;;;;;;;;;4996686;28;20475;-71
2022/08/20 07:50:10;;;;;;;7.50;6.00;;;;;;;;;;5000807;28;20488;-71
2022/08/20 07:52:39;;;;;;;6.77;4.77;;;;;;;;;;5001028;28;20474;-71
2022/08/20 07:55:09;;;;;;;6.83;5.00;;;;;;;;;;5002347;28;20487;-71
2022/08/20 07:57:37;;;;;;;8.40;5.37;;;;;;;;;;5006036;28;20472;-71
2022/08/20 08:00:34;;;;;;;7.80;5.70;;;;;;;;;;5002027;28;20892;-71
2022/08/20 08:03:01;;;;;;;9.93;6.50;;;;;;;;;;5004442;28;20503;-70
2022/08/20 08:05:30;;;;;;;7.17;5.90;;;;;;;;;;5002192;28;20492;-70
2022/08/20 08:07:59;;;;;;;9.93;6.30;;;;;;;;;;5007650;28;20456;-71
2022/08/20 08:10:37;;;;;;;6.60;5.43;;;;;;;;;;5016668;28;20447;-72
2022/08/20 08:13:13;;;;;;;8.50;5.90;;;;;;;;;;5012686;28;21050;-71
2022/08/20 08:15:48;;;;;;;7.97;6.73;;;;;;;;;;5012200;28;20753;-70
2022/08/20 08:18:27;;;;;;;7.40;6.10;;;;;;;;;;4996226;28;20456;-71
2022/08/20 08:20:58;;;;;;;6.30;5.53;;;;;;;;;;4995533;28;20491;-71
2022/08/20 08:23:29;;;;;;;8.50;6.73;;;;;;;;;;5009510;28;20463;-71
2022/08/20 08:26:00;;;;;;;7.90;5.60;;;;;;;;;;5008012;28;20508;-72
2022/08/20 08:28:28;;;;;;;8.13;6.83;;;;;;;;;;5008859;28;21122;-72
2022/08/20 08:30:56;;;;;;;8.67;6.10;;;;;;;;;;5037350;28;20479;-72
2022/08/20 08:33:29;;;;;;;7.57;6.57;;;;;;;;;;5004152;28;20517;-71
2022/08/20 08:35:58;;;;;;;6.47;5.87;;;;;;;;;;5000810;28;20904;-72
2022/08/20 08:38:25;;;;;;;7.60;5.00;;;;;;;;;;5009909;28;20528;-73
2022/08/20 08:40:56;;;;;;;7.70;6.27;;;;;;;;;;5007208;28;20512;-72
2022/08/20 08:43:24;;;;;;;9.17;6.17;;;;;;;;;;5007629;28;21313;-73
2022/08/20 08:45:55;;;;;;;8.73;6.37;;;;;;;;;;4995182;28;20518;-73
2022/08/20 08:48:23;;;;;;;7.40;6.00;;;;;;;;;;4999524;28;20517;-72
2022/08/20 08:50:52;;;;;;;7.73;6.30;;;;;;;;;;5007118;28;20471;-73
2022/08/20 08:53:22;;;;;;;7.00;5.60;;;;;;;;;;5010706;28;20478;-72
2022/08/20 08:55:49;;;;;;;5.80;5.10;;;;;;;;;;5007295;28;20471;-73
2022/08/20 08:58:16;;;;;;;5.50;4.07;;;;;;;;;;5010656;28;20812;-73
2022/08/20 09:00:46;;;;;;;7.57;4.40;;;;;;;;;;5008922;28;20466;-73
2022/08/20 09:03:21;;;;;;;5.20;4.70;;;;;;;;;;5008112;28;20569;-73
2022/08/20 09:05:50;;;;;;;8.60;5.33;;;;;;;;;;5007337;28;20954;-73
2022/08/20 09:08:20;;;;;;;6.17;4.17;;;;;;;;;;5006481;28;20482;-73
2022/08/20 09:10:48;;;;;;;7.60;3.80;;;;;;;;;;5004099;28;20468;-73
2022/08/20 09:13:18;;;;;;;8.50;4.83;;;;;;;;;;5008131;28;20532;-73
2022/08/20 09:15:47;;;;;;;5.80;4.23;;;;;;;;;;5006651;28;20467;-73
2022/08/20 09:18:14;;;;;;;3.40;3.10;;;;;;;;;;5007168;28;20527;-72
2022/08/20 09:20:42;;;;;;;7.67;4.20;;;;;;;;;;5004761;28;20480;-72
2022/08/20 09:23:12;;;;;;;4.40;3.50;;;;;;;;;;5006278;28;20502;-73
2022/08/20 09:25:43;;;;;;;4.70;3.67;;;;;;;;;;5003680;28;20523;-73
2022/08/20 09:28:11;;;;;;;4.37;3.90;;;;;;;;;;5005954;28;20501;-73
2022/08/20 09:30:38;;;;;;;4.63;3.63;;;;;;;;;;5006457;28;20580;-74
2022/08/20 09:33:05;;;;;;;4.70;3.90;;;;;;;;;;5003792;28;20555;-73
2022/08/20 09:35:39;;;;;;;5.50;4.10;;;;;;;;;;5005863;28;20854;-73
2022/08/20 09:38:08;;;;;;;5.40;3.70;;;;;;;;;;5004685;28;20546;-74
2022/08/20 09:40:35;;;;;;;5.00;4.20;;;;;;;;;;5002515;28;20471;-73
2022/08/20 09:43:12;;;;;;;4.50;4.03;;;;;;;;;;4996710;28;20475;-73
2022/08/20 09:45:41;;;;;;;5.10;4.30;;;;;;;;;;5007827;28;20491;-74
2022/08/20 09:48:11;;;;;;;3.90;3.50;;;;;;;;;;4999836;28;20773;-73
2022/08/20 09:50:43;;;;;;;4.53;3.43;;;;;;;;;;5006702;28;20627;-73
2022/08/20 09:53:22;;;;;;;3.53;3.10;;;;;;;;;;5007287;28;20484;-74
2022/08/20 09:55:52;;;;;;;4.17;3.47;;;;;;;;;;5004604;28;20588;-74
2022/08/20 09:58:24;;;;;;;6.70;3.80;;;;;;;;;;5005062;28;20468;-73
2022/08/20 10:01:01;;;;;;;6.37;3.90;;;;;;;;;;5004642;28;20550;-73
2022/08/20 10:03:31;;;;;;;6.77;3.60;;;;;;;;;;4998931;28;20758;-74
2022/08/20 10:06:00;;;;;;;5.30;3.50;;;;;;;;;;5003657;28;20490;-73
2022/08/20 10:08:30;;;;;;;8.20;2.90;;;;;;;;;;4992632;28;20461;-73
2022/08/20 10:11:00;;;;;;;5.13;2.70;;;;;;;;;;4998200;28;20860;-73
2022/08/20 10:13:32;;;;;;;4.33;2.37;;;;;;;;;;5020259;28;20494;-73
2022/08/20 10:16:04;;;;;;;5.00;2.43;;;;;;;;;;5019411;28;20490;-73
2022/08/20 10:18:40;;;;;;;4.93;2.90;;;;;;;;;;5000985;28;20469;-75
2022/08/20 10:21:09;;;;;;;3.20;2.30;;;;;;;;;;4999735;28;20557;-73
2022/08/20 10:23:36;;;;;;;3.93;2.40;;;;;;;;;;5004922;28;20455;-73
2022/08/20 10:26:08;;;;;;;4.77;2.73;;;;;;;;;;4999290;28;20496;-71
2022/08/20 10:28:41;;;;;;;5.80;2.60;;;;;;;;;;5007814;28;20460;-72
2022/08/20 10:31:17;;;;;;;6.77;3.00;;;;;;;;;;5006721;28;20460;-72
2022/08/20 10:33:49;;;;;;;6.00;2.27;;;;;;;;;;4998804;28;20877;-74
2022/08/20 10:36:18;;;;;;;4.67;2.80;;;;;;;;;;5007818;28;20872;-72
2022/08/20 10:38:47;;;;;;;3.83;2.40;;;;;;;;;;4992506;28;20475;-73
2022/08/20 10:41:15;;;;;;;5.60;2.23;;;;;;;;;;5010320;28;20464;-74
2022/08/20 10:43:46;;;;;;;4.33;2.70;;;;;;;;;;5006957;28;20466;-73
2022/08/20 10:46:16;;;;;;;6.60;2.33;;;;;;;;;;5007827;28;20496;-73
2022/08/20 10:48:51;;;;;;;4.57;3.20;;;;;;;;;;5006102;28;20455;-72
2022/08/20 10:51:21;;;;;;;3.40;2.40;;;;;;;;;;5004052;28;20510;-74
2022/08/20 10:53:50;;;;;;;4.57;2.17;;;;;;;;;;5006411;28;20465;-73
2022/08/20 10:56:18;;;;;;;4.30;2.07;;;;;;;;;;4998464;28;20586;-73
2022/08/20 10:58:46;;;;;;;3.77;2.23;;;;;;;;;;5000753;28;20514;-72
2022/08/20 11:01:38;;;;;;;3.50;1.93;;;;;;;;;;5004001;28;21097;-74
2022/08/20 11:04:08;;;;;;;5.40;2.03;;;;;;;;;;5000654;28;20531;-74
2022/08/20 11:06:35;;;;;;;6.57;2.30;;;;;;;;;;5006129;28;20617;-72
2022/08/20 11:09:05;;;;;;;6.90;2.47;;;;;;;;;;5000826;28;21551;-73
2022/08/20 11:11:33;;;;;;;3.23;1.90;;;;;;;;;;5005675;28;20646;-73
2022/08/20 11:14:00;;;;;;;3.80;2.40;;;;;;;;;;5006536;28;20470;-73
2022/08/20 11:16:31;;;;;;;3.63;1.43;;;;;;;;;;5002281;28;20479;-73
2022/08/20 11:18:59;;;;;;;4.10;2.10;;;;;;;;;;5001597;28;20839;-73
2022/08/20 11:21:37;;;;;;;4.00;2.27;;;;;;;;;;5005108;28;20478;-72
2022/08/20 11:24:08;;;;;;;4.47;1.87;;;;;;;;;;5002398;28;20495;-72
2022/08/20 11:26:36;;;;;;;5.50;2.10;;;;;;;;;;5005176;28;20570;-72
2022/08/20 11:29:03;;;;;;;6.40;2.07;;;;;;;;;;5005089;28;20489;-72
2022/08/20 11:31:32;;;;;;;3.60;1.93;;;;;;;;;;5008128;28;20473;-72
2022/08/20 11:34:00;;;;;;;3.77;1.80;;;;;;;;;;5003375;28;20528;-72
2022/08/20 11:36:27;;;;;;;5.13;2.10;;;;;;;;;;5009259;28;20638;-72
2022/08/20 11:38:54;;;;;;;29.00;11.60;;;;;;;;;;5004453;28;20908;-72
2022/08/20 11:41:25;;;;;;;6.47;3.50;;;;;;;;;;5010944;28;20467;-71
2022/08/20 11:43:53;;;;;;;12.70;6.63;;;;;;;;;;5032240;28;20465;-73
2022/08/20 11:46:21;;;;;;;7.87;3.67;;;;;;;;;;5031339;28;21126;-71
2022/08/20 11:48:49;;;;;;;6.97;2.70;;;;;;;;;;5011595;28;20451;-73
2022/08/20 11:51:16;;;;;;;10.90;3.70;;;;;;;;;;5001304;28;20471;-72
2022/08/20 11:53:44;;;;;;;8.43;2.80;;;;;;;;;;5008546;28;20463;-72
2022/08/20 11:56:11;;;;;;;9.07;3.50;;;;;;;;;;5009121;28;20489;-73
2022/08/20 11:58:41;;;;;;;5.27;2.30;;;;;;;;;;5005266;28;21068;-72
2022/08/20 12:01:11;;;;;;;5.10;1.90;;;;;;;;;;4997769;28;20526;-72
2022/08/20 12:03:41;;;;;;;5.00;2.10;;;;;;;;;;5006991;28;20459;-73
2022/08/20 12:06:09;;;;;;;4.93;2.10;;;;;;;;;;5010048;28;20919;-73
2022/08/20 12:08:36;;;;;;;4.70;2.30;;;;;;;;;;5009430;28;20511;-72
2022/08/20 12:11:04;;;;;;;6.70;2.23;;;;;;;;;;5007639;28;20509;-73
2022/08/20 12:13:37;;;;;;;4.70;1.93;;;;;;;;;;5010180;28;20818;-73
2022/08/20 12:16:08;;;;;;;5.37;2.57;;;;;;;;;;5009197;28;20912;-72
2022/08/20 12:18:35;;;;;;;5.80;2.13;;;;;;;;;;5009597;28;20463;-72
2022/08/20 12:21:02;;;;;;;14.17;2.63;;;;;;;;;;5008599;28;20479;-72
2022/08/20 12:23:30;;;;;;;6.50;2.17;;;;;;;;;;5009012;28;20467;-72
2022/08/20 12:26:01;;;;;;;6.17;2.03;;;;;;;;;;5008708;28;20494;-72
2022/08/20 12:28:31;;;;;;;5.03;2.23;;;;;;;;;;5012839;28;20478;-72
2022/08/20 12:30:58;;;;;;;4.57;1.70;;;;;;;;;;4996242;28;20913;-72
2022/08/20 12:33:28;;;;;;;10.40;3.23;;;;;;;;;;5008045;28;20896;-72
2022/08/20 12:35:55;;;;;;;4.33;1.63;;;;;;;;;;5008263;28;20480;-71
2022/08/20 12:38:22;;;;;;;5.90;1.80;;;;;;;;;;5002665;28;20547;-72
2022/08/20 12:40:50;;;;;;;3.47;1.70;;;;;;;;;;5006336;28;20475;-72
2022/08/20 12:43:22;;;;;;;3.87;1.67;;;;;;;;;;5007712;28;20467;-72
2022/08/20 12:45:54;;;;;;;7.07;2.00;;;;;;;;;;5008033;28;20510;-72
2022/08/20 12:48:21;;;;;;;6.20;1.70;;;;;;;;;;5007933;28;20458;-72
2022/08/20 12:50:49;;;;;;;6.47;2.50;;;;;;;;;;4999066;28;20570;-72
2022/08/20 12:53:19;;;;;;;4.90;2.10;;;;;;;;;;4999053;28;20475;-72
2022/08/20 12:55:47;;;;;;;3.70;1.73;;;;;;;;;;5006135;28;20479;-71
2022/08/20 12:58:15;;;;;;;6.17;2.43;;;;;;;;;;5006348;28;20559;-72
2022/08/20 13:00:46;;;;;;;6.07;1.90;;;;;;;;;;5007954;28;20471;-72
2022/08/20 13:03:16;;;;;;;4.80;1.80;;;;;;;;;;4999738;28;20872;-72
2022/08/20 13:05:59;;;;;;;6.70;2.50;;;;;;;;;;5008232;28;20613;-74
2022/08/20 13:08:34;;;;;;;13.03;3.37;;;;;;;;;;4991163;28;20927;-71
2022/08/20 13:11:05;;;;;;;5.10;2.27;;;;;;;;;;5006004;28;20547;-73
2022/08/20 13:13:33;;;;;;;8.27;2.73;;;;;;;;;;5010011;28;20846;-74
2022/08/20 13:16:03;;;;;;;13.43;2.03;;;;;;;;;;5003977;28;20806;-73
2022/08/20 13:19:05;;;;;;;6.57;2.77;;;;;;;;;;5000963;28;20464;-72
2022/08/20 13:21:32;;;;;;;4.30;1.80;;;;;;;;;;4985022;28;20459;-72
2022/08/20 13:24:03;;;;;;;6.30;2.67;;;;;;;;;;5008611;28;20471;-71
2022/08/20 13:26:31;;;;;;;4.60;2.03;;;;;;;;;;5009991;28;21155;-72
2022/08/20 13:29:03;;;;;;;5.03;1.60;;;;;;;;;;5010617;28;20515;-71
2022/08/20 13:31:32;;;;;;;3.53;1.63;;;;;;;;;;4993902;28;20505;-72
2022/08/20 13:34:05;;;;;;;2.30;1.70;;;;;;;;;;5008088;28;20513;-73
2022/08/20 13:36:35;;;;;;;4.00;1.53;;;;;;;;;;5010552;28;20474;-72
2022/08/20 13:39:11;;;;;;;3.43;1.50;;;;;;;;;;5008121;28;20459;-72
2022/08/20 13:41:40;;;;;;;4.67;1.70;;;;;;;;;;5008390;28;20478;-72
2022/08/20 13:44:19;;;;;;;5.10;1.80;;;;;;;;;;5008643;28;20491;-73
2022/08/20 13:46:52;;;;;;;4.30;1.77;;;;;;;;;;5009661;27;20936;-72
2022/08/20 13:49:22;;;;;;;6.07;2.23;;;;;;;;;;5004776;28;20471;-73
2022/08/20 13:51:52;;;;;;;4.63;1.80;;;;;;;;;;5004447;28;20503;-73
2022/08/20 13:54:20;;;;;;;5.70;1.80;;;;;;;;;;5006856;28;20455;-72
2022/08/20 13:56:51;;;;;;;4.17;1.50;;;;;;;;;;5001873;28;20452;-72
2022/08/20 13:59:19;;;;;;;3.87;1.70;;;;;;;;;;5007417;28;20558;-74
2022/08/20 14:01:48;;;;;;;6.10;1.70;;;;;;;;;;5008876;28;20448;-71
2022/08/20 14:04:18;;;;;;;5.17;1.60;;;;;;;;;;4998964;28;20452;-72
2022/08/20 14:06:46;;;;;;;4.33;1.30;;;;;;;;;;5001190;28;20479;-73
2022/08/20 14:09:14;;;;;;;4.13;1.90;;;;;;;;;;5004990;28;20546;-73
2022/08/20 14:11:41;;;;;;;12.00;1.73;;;;;;;;;;5006574;28;20459;-73
2022/08/20 14:14:14;;;;;;;5.50;1.50;;;;;;;;;;5003909;28;20456;-73
2022/08/20 14:16:43;;;;;;;3.87;1.57;;;;;;;;;;5003346;28;20475;-73
2022/08/20 14:19:10;;;;;;;6.40;2.43;;;;;;;;;;5006403;28;20539;-72
2022/08/20 14:21:38;;;;;;;8.63;2.10;;;;;;;;;;5007430;28;20794;-72
2022/08/20 14:24:05;;;;;;;5.50;1.47;;;;;;;;;;5009615;28;20516;-72
2022/08/20 14:26:35;;;;;;;4.43;1.20;;;;;;;;;;5009336;28;21120;-73
2022/08/20 14:29:18;;;;;;;5.27;1.60;;;;;;;;;;5007702;28;20919;-72
2022/08/20 14:31:49;;;;;;;9.33;1.87;;;;;;;;;;4999949;28;20922;-72
2022/08/20 14:34:16;;;;;;;10.73;3.60;;;;;;;;;;5007959;28;20464;-72
2022/08/20 14:36:43;;;;;;;4.07;2.00;;;;;;;;;;5011644;28;20472;-73
2022/08/20 14:39:11;;;;;;;3.73;1.20;;;;;;;;;;5001493;28;20554;-73
2022/08/20 14:41:38;;;;;;;4.00;1.40;;;;;;;;;;5006802;28;20466;-73
2022/08/20 14:44:09;;;;;;;4.27;1.77;;;;;;;;;;5009032;28;20459;-73
2022/08/20 14:46:37;;;;;;;3.13;1.10;;;;;;;;;;5003031;28;20716;-73
2022/08/20 14:49:05;;;;;;;5.73;1.60;;;;;;;;;;5002914;28;20460;-73
2022/08/20 14:51:36;;;;;;;3.97;1.20;;;;;;;;;;5004958;28;20596;-72
2022/08/20 14:54:06;;;;;;;2.90;1.07;;;;;;;;;;5006293;28;20464;-73
2022/08/20 14:56:33;;;;;;;4.63;1.40;;;;;;;;;;5002866;28;20746;-73